createdAt,value
2022-08-14T00:01:55.433Z,21.60
2022-08-14T00:04:46.360Z,21.30
2022-08-14T00:07:35.635Z,21.40
2022-08-14T00:10:51.569Z,21.30
2022-08-14T00:13:40.904Z,21.60
2022-08-14T00:16:41.364Z,21.30
2022-08-14T00:19:33.516Z,21.20
2022-08-14T00:22:56.600Z,21.20
2022-08-14T00:25:42.118Z,21.20
2022-08-14T00:28:32.793Z,21.30
2022-08-14T00:31:35.197Z,21.20
2022-08-14T00:34:36.344Z,21.10
2022-08-14T00:37:32.029Z,21.00
2022-08-14T00:40:33.073Z,21.00
2022-08-14T00:43:24.213Z,20.90
2022-08-14T00:46:23.445Z,20.80
2022-08-14T00:49:23.315Z,20.60
2022-08-14T00:52:17.695Z,21.00
2022-08-14T00:55:08.747Z,20.50
2022-08-14T00:58:20.327Z,20.40
2022-08-14T01:01:21.188Z,20.30
2022-08-14T01:04:51.577Z,20.20
2022-08-14T01:07:23.586Z,20.20
2022-08-14T01:10:12.609Z,20.10
2022-08-14T01:13:01.312Z,20.10
2022-08-14T01:15:58.397Z,20.10
2022-08-14T01:19:07.504Z,20.10
2022-08-14T01:21:58.849Z,20.10
2022-08-14T01:24:50.991Z,20.00
2022-08-14T01:27:56.864Z,20.20
2022-08-14T01:30:46.425Z,19.90
2022-08-14T01:33:59.314Z,19.90
2022-08-14T01:36:47.193Z,19.90
2022-08-14T01:39:37.948Z,19.80
2022-08-14T01:42:30.972Z,19.70
2022-08-14T01:45:25.519Z,19.70
2022-08-14T01:48:14.521Z,19.60
2022-08-14T01:51:03.582Z,19.50
2022-08-14T01:53:55.342Z,19.70
2022-08-14T01:56:46.129Z,19.60
2022-08-14T01:59:37.817Z,19.60
2022-08-14T02:02:27.838Z,19.50
2022-08-14T02:05:35.517Z,19.50
2022-08-14T02:08:35.471Z,19.50
2022-08-14T02:11:25.039Z,19.50
2022-08-14T02:14:15.614Z,19.40
2022-08-14T02:17:23.070Z,19.40
2022-08-14T02:20:14.086Z,19.30
2022-08-14T02:23:02.914Z,19.30
2022-08-14T02:25:54.338Z,19.30
2022-08-14T02:28:57.913Z,19.20
2022-08-14T02:31:52.787Z,19.10
2022-08-14T02:34:43.038Z,19.10
2022-08-14T02:37:46.389Z,19.00
2022-08-14T02:40:37.729Z,18.90
2022-08-14T02:43:36.791Z,18.80
2022-08-14T02:46:35.463Z,18.60
2022-08-14T02:49:34.126Z,18.60
2022-08-14T02:52:56.857Z,18.50
2022-08-14T02:55:32.930Z,18.40
2022-08-14T02:58:30.440Z,18.50
2022-08-14T03:01:24.019Z,18.50
2022-08-14T03:04:15.847Z,18.50
2022-08-14T03:07:09.507Z,18.60
2022-08-14T03:10:26.504Z,18.50
2022-08-14T03:13:06.980Z,18.40
2022-08-14T03:16:20.302Z,18.50
2022-08-14T03:19:15.710Z,18.40
2022-08-14T03:22:17.738Z,18.40
2022-08-14T03:25:07.633Z,18.30
2022-08-14T03:28:02.754Z,18.30
2022-08-14T03:30:51.698Z,18.30
2022-08-14T03:33:44.502Z,18.20
2022-08-14T03:37:51.281Z,18.20
2022-08-14T03:39:43.815Z,18.20
2022-08-14T03:42:36.770Z,18.30
2022-08-14T03:45:35.454Z,18.20
2022-08-14T03:48:30.531Z,18.20
2022-08-14T03:51:20.067Z,18.20
2022-08-14T03:54:09.452Z,18.20
2022-08-14T03:57:06.751Z,18.20
2022-08-14T03:59:55.167Z,18.10
2022-08-14T04:02:46.815Z,18.20
2022-08-14T04:05:43.294Z,18.20
2022-08-14T04:08:38.415Z,18.20
2022-08-14T04:11:30.489Z,18.20
2022-08-14T04:14:20.933Z,18.90
2022-08-14T04:17:13.063Z,18.20
2022-08-14T04:20:04.047Z,18.20
2022-08-14T04:22:53.171Z,19.20
2022-08-14T04:25:44.444Z,18.70
2022-08-14T04:29:08.464Z,18.30
2022-08-14T04:33:02.075Z,18.20
2022-08-14T04:34:56.120Z,18.20
2022-08-14T04:38:36.020Z,18.30
2022-08-14T04:41:36.137Z,18.20
2022-08-14T04:44:26.496Z,18.30
2022-08-14T04:47:46.299Z,18.30
2022-08-14T04:50:44.594Z,18.40
2022-08-14T04:53:36.091Z,18.40
2022-08-14T04:56:30.222Z,18.50
2022-08-14T04:59:20.598Z,18.70
2022-08-14T05:02:10.251Z,18.70
2022-08-14T05:05:00.575Z,18.70
2022-08-14T05:08:01.158Z,18.70
2022-08-14T05:10:51.851Z,18.90
2022-08-14T05:16:50.371Z,19.00
2022-08-14T05:19:45.072Z,19.00
2022-08-14T05:22:55.623Z,19.10
2022-08-14T05:25:45.159Z,19.20
2022-08-14T05:28:36.183Z,19.30
2022-08-14T05:31:39.583Z,19.40
2022-08-14T05:34:32.048Z,19.40
2022-08-14T05:37:20.655Z,19.60
2022-08-14T05:40:13.272Z,19.70
2022-08-14T05:43:02.198Z,19.80
2022-08-14T05:45:55.570Z,19.90
2022-08-14T05:48:45.338Z,20.00
2022-08-14T05:51:33.923Z,20.10
2022-08-14T05:54:27.142Z,20.20
2022-08-14T05:57:17.808Z,20.20
2022-08-14T06:00:07.531Z,20.20
2022-08-14T06:02:57.483Z,20.40
2022-08-14T06:05:47.662Z,20.50
2022-08-14T06:08:41.804Z,20.50
2022-08-14T06:11:31.376Z,20.60
2022-08-14T06:14:24.181Z,20.70
2022-08-14T06:17:15.682Z,20.70
2022-08-14T06:20:15.593Z,20.80
2022-08-14T06:23:10.699Z,20.90
2022-08-14T06:25:59.485Z,21.00
2022-08-14T06:28:47.943Z,21.10
2022-08-14T06:31:42.365Z,21.30
2022-08-14T06:35:10.185Z,21.50
2022-08-14T06:37:44.201Z,21.50
2022-08-14T06:40:35.613Z,21.60
2022-08-14T06:43:29.831Z,21.90
2022-08-14T06:46:23.093Z,22.10
2022-08-14T06:49:16.472Z,22.20
2022-08-14T06:52:06.064Z,22.20
2022-08-14T06:54:55.305Z,22.50
2022-08-14T06:57:46.050Z,22.60
2022-08-14T07:00:34.677Z,22.80
2022-08-14T07:03:40.571Z,23.10
2022-08-14T07:06:46.585Z,23.30
2022-08-14T07:09:43.595Z,23.60
2022-08-14T07:12:54.197Z,23.80
2022-08-14T07:15:43.132Z,24.00
2022-08-14T07:18:33.157Z,24.10
2022-08-14T07:21:21.624Z,24.30
2022-08-14T07:24:26.160Z,24.50
2022-08-14T07:27:19.673Z,24.70
2022-08-14T07:30:34.478Z,24.90
2022-08-14T07:33:24.706Z,25.00
2022-08-14T07:36:27.769Z,25.30
2022-08-14T07:39:27.734Z,25.50
2022-08-14T07:42:16.778Z,25.50
2022-08-14T07:45:12.069Z,25.70
2022-08-14T07:48:00.878Z,25.90
2022-08-14T07:50:50.748Z,26.10
2022-08-14T07:53:41.268Z,26.30
2022-08-14T07:56:48.238Z,26.40
2022-08-14T07:59:42.328Z,26.70
2022-08-14T08:02:33.335Z,26.80
2022-08-14T08:05:24.506Z,26.90
2022-08-14T08:08:26.474Z,27.10
2022-08-14T08:11:19.318Z,27.10
2022-08-14T08:14:17.299Z,27.30
2022-08-14T08:17:07.039Z,27.50
2022-08-14T08:19:57.252Z,27.50
2022-08-14T08:22:47.943Z,27.70
2022-08-14T08:25:40.419Z,27.90
2022-08-14T08:28:31.362Z,28.10
2022-08-14T08:31:23.059Z,28.10
2022-08-14T08:34:23.596Z,28.10
2022-08-14T08:37:13.042Z,28.40
2022-08-14T08:40:04.175Z,28.60
2022-08-14T08:42:54.934Z,28.70
2022-08-14T08:45:55.627Z,29.10
2022-08-14T08:48:52.073Z,29.00
